createdAt,value
2023-03-07T00:00:23.195Z,99079.50
2023-03-07T00:02:53.295Z,99073.75
2023-03-07T00:05:21.100Z,99063.16
2023-03-07T00:07:47.906Z,99060.50
2023-03-07T00:10:15.113Z,99054.56
2023-03-07T00:12:41.956Z,99055.69
2023-03-07T00:15:08.990Z,99040.06
2023-03-07T00:17:38.905Z,99052.22
2023-03-07T00:20:07.669Z,99042.41
2023-03-07T00:22:35.405Z,99037.13
2023-03-07T00:25:02.329Z,99030.38
2023-03-07T00:27:30.448Z,99027.31
2023-03-07T00:29:57.391Z,99009.06
2023-03-07T00:32:24.148Z,99011.06
2023-03-07T00:34:50.711Z,99006.94
2023-03-07T00:37:17.018Z,98995.75
2023-03-07T00:39:43.725Z,98988.69
2023-03-07T00:42:10.380Z,98988.41
2023-03-07T00:44:36.789Z,98987.03
2023-03-07T00:47:03.871Z,98983.84
2023-03-07T00:49:30.690Z,98967.44
2023-03-07T00:51:57.359Z,98958.19
2023-03-07T00:54:23.951Z,98951.91
2023-03-07T00:56:50.760Z,98949.34
2023-03-07T00:59:17.438Z,98933.22
2023-03-07T01:01:44.251Z,98935.13
2023-03-07T01:04:10.871Z,98932.78
2023-03-07T01:06:37.399Z,98931.47
2023-03-07T01:09:05.690Z,98919.50
2023-03-07T01:11:32.464Z,98909.78
2023-03-07T01:14:01.637Z,98919.56
2023-03-07T01:16:29.797Z,98904.50
2023-03-07T01:18:57.487Z,98893.66
2023-03-07T01:21:28.382Z,98887.38
2023-03-07T01:23:55.250Z,98882.47
2023-03-07T01:26:23.109Z,98881.66
2023-03-07T01:28:54.247Z,98872.31
2023-03-07T01:31:21.752Z,98875.78
2023-03-07T01:33:49.289Z,98867.78
2023-03-07T01:36:20.779Z,98852.66
2023-03-07T01:38:48.257Z,98853.94
2023-03-07T01:41:15.337Z,98848.38
2023-03-07T01:43:42.029Z,98842.50
2023-03-07T01:46:17.815Z,98836.81
2023-03-07T01:48:50.784Z,98837.84
2023-03-07T01:51:18.186Z,98835.94
2023-03-07T01:53:45.251Z,98830.75
2023-03-07T01:56:12.061Z,98820.84
2023-03-07T01:58:39.273Z,98810.94
2023-03-07T02:01:10.175Z,98808.00
2023-03-07T02:03:55.267Z,98801.22
2023-03-07T02:06:22.763Z,98794.06
2023-03-07T02:08:49.712Z,98797.94
2023-03-07T02:11:16.756Z,98792.22
2023-03-07T02:13:43.351Z,98776.28
2023-03-07T02:16:10.378Z,98779.19
2023-03-07T02:18:42.763Z,98773.69
2023-03-07T02:21:19.238Z,98772.41
2023-03-07T02:23:48.819Z,98765.84
2023-03-07T02:26:21.277Z,98765.41
2023-03-07T02:28:48.253Z,98763.19
2023-03-07T02:31:14.834Z,98754.16
2023-03-07T02:33:41.302Z,98746.69
2023-03-07T02:36:28.194Z,98746.38
2023-03-07T02:38:56.688Z,98748.00
2023-03-07T02:41:26.006Z,98735.63
2023-03-07T02:43:52.414Z,98735.75
2023-03-07T02:46:19.858Z,98726.69
2023-03-07T02:48:46.688Z,98717.84
2023-03-07T02:51:13.236Z,98723.38
2023-03-07T02:53:39.755Z,98715.91
2023-03-07T02:56:06.598Z,98715.63
2023-03-07T02:58:33.034Z,98706.31
2023-03-07T03:00:59.598Z,98710.25
2023-03-07T03:03:26.168Z,98705.94
2023-03-07T03:05:52.803Z,98705.38
2023-03-07T03:08:19.446Z,98701.59
2023-03-07T03:10:45.840Z,98696.97
2023-03-07T03:13:12.156Z,98688.59
2023-03-07T03:15:38.782Z,98686.72
2023-03-07T03:18:05.866Z,98691.38
2023-03-07T03:20:32.336Z,98682.78
2023-03-07T03:22:58.987Z,98680.16
2023-03-07T03:25:27.093Z,98673.63
2023-03-07T03:27:54.056Z,98679.81
2023-03-07T03:30:20.737Z,98665.31
2023-03-07T03:32:47.533Z,98663.50
2023-03-07T03:35:14.611Z,98657.31
2023-03-07T03:37:41.828Z,98651.81
2023-03-07T03:40:14.664Z,98658.00
2023-03-07T03:42:42.332Z,98655.47
2023-03-07T03:45:10.096Z,98660.28
2023-03-07T03:47:37.065Z,98652.88
2023-03-07T03:50:04.319Z,98645.69
2023-03-07T03:52:30.818Z,98634.53
2023-03-07T03:54:57.499Z,98633.13
2023-03-07T03:57:24.320Z,98631.13
2023-03-07T03:59:51.535Z,98620.72
2023-03-07T04:02:18.449Z,98634.50
2023-03-07T04:04:45.034Z,98618.53
2023-03-07T04:07:11.578Z,98618.84
2023-03-07T04:09:37.928Z,98617.38
2023-03-07T04:12:04.424Z,98615.34
2023-03-07T04:14:30.920Z,98613.66
2023-03-07T04:16:58.012Z,98620.00
2023-03-07T04:19:24.687Z,98609.47
2023-03-07T04:21:51.114Z,98608.94
2023-03-07T04:24:17.508Z,98609.53
2023-03-07T04:26:43.838Z,98601.28
2023-03-07T04:29:10.386Z,98596.16
2023-03-07T04:31:36.800Z,98592.81
2023-03-07T04:34:03.591Z,98591.16
2023-03-07T04:36:29.945Z,98581.53
2023-03-07T04:38:56.373Z,98581.31
2023-03-07T04:41:26.043Z,98568.06
2023-03-07T04:43:52.382Z,98557.84
2023-03-07T04:46:19.469Z,98559.81
2023-03-07T04:48:46.340Z,98559.78
2023-03-07T04:51:13.396Z,98553.94
2023-03-07T04:53:39.981Z,98552.59
2023-03-07T04:56:07.207Z,98549.59
2023-03-07T04:58:33.968Z,98539.31
2023-03-07T05:01:01.445Z,98536.00
2023-03-07T05:03:28.425Z,98531.28
2023-03-07T05:05:56.269Z,98534.63
2023-03-07T05:08:23.104Z,98543.19
2023-03-07T05:10:49.495Z,98523.63
2023-03-07T05:13:15.961Z,98516.47
2023-03-07T05:15:42.457Z,98519.94
2023-03-07T05:18:08.969Z,98516.31
2023-03-07T05:20:35.406Z,98513.03
2023-03-07T05:23:01.909Z,98514.41
2023-03-07T05:25:28.612Z,98513.88
2023-03-07T05:27:55.472Z,98506.91
2023-03-07T05:30:22.259Z,98503.03
2023-03-07T05:32:49.038Z,98500.00
2023-03-07T05:35:16.739Z,98500.28
2023-03-07T05:37:43.550Z,98500.41
2023-03-07T05:40:10.715Z,98488.91
2023-03-07T05:42:38.674Z,98499.94
2023-03-07T05:45:06.082Z,98496.13
2023-03-07T05:47:32.918Z,98505.63
2023-03-07T05:49:59.581Z,98501.41
2023-03-07T05:52:33.748Z,98493.50
2023-03-07T05:55:01.127Z,98486.31
2023-03-07T05:57:28.435Z,98490.28
2023-03-07T05:59:55.466Z,98468.53
2023-03-07T06:02:24.439Z,98474.28
2023-03-07T06:04:51.759Z,98475.50
2023-03-07T06:07:18.619Z,98460.03
2023-03-07T06:09:45.248Z,98462.44
2023-03-07T06:12:12.002Z,98474.69
2023-03-07T06:14:38.702Z,98459.66
2023-03-07T06:17:05.972Z,98474.53
2023-03-07T06:19:33.994Z,98462.31
2023-03-07T06:22:00.759Z,98459.41
2023-03-07T06:24:28.960Z,98464.34
2023-03-07T06:26:56.017Z,98463.34
2023-03-07T06:29:23.094Z,98469.84
2023-03-07T06:31:52.573Z,98472.22
2023-03-07T06:34:19.481Z,98461.91
2023-03-07T06:37:00.232Z,98469.63
2023-03-07T06:39:29.614Z,98477.75
2023-03-07T06:41:57.524Z,98472.53
2023-03-07T06:44:25.138Z,98470.59
2023-03-07T06:46:52.239Z,98467.78
2023-03-07T06:49:26.476Z,98470.69
2023-03-07T06:51:53.191Z,98469.84
2023-03-07T06:54:26.253Z,98480.25
2023-03-07T06:56:53.110Z,98479.84
2023-03-07T06:59:19.889Z,98475.53
2023-03-07T07:01:48.968Z,98481.06
2023-03-07T07:04:18.762Z,98477.19
2023-03-07T07:06:51.988Z,98478.00
2023-03-07T07:09:19.013Z,98487.16
2023-03-07T07:11:45.678Z,98496.34
2023-03-07T07:14:21.135Z,98492.66
2023-03-07T07:16:48.016Z,98508.72
2023-03-07T07:19:15.557Z,98517.50
2023-03-07T07:21:50.527Z,98509.66
2023-03-07T07:24:17.537Z,98495.91
2023-03-07T07:26:46.555Z,98487.13
2023-03-07T07:29:14.042Z,98486.75
2023-03-07T07:31:42.515Z,98486.75
2023-03-07T07:34:11.248Z,98488.91
2023-03-07T07:36:38.128Z,98504.50
2023-03-07T07:39:06.320Z,98493.88
2023-03-07T07:41:33.652Z,98510.16
2023-03-07T07:44:00.785Z,98511.44
2023-03-07T07:46:30.486Z,98505.72
2023-03-07T07:49:05.642Z,98510.00
2023-03-07T07:51:34.065Z,98508.38
2023-03-07T07:54:01.072Z,98514.00
2023-03-07T07:56:35.969Z,98514.41
2023-03-07T07:59:02.598Z,98516.69
2023-03-07T08:01:29.407Z,98519.97
2023-03-07T08:03:56.087Z,98516.84
2023-03-07T08:06:26.050Z,98524.19
2023-03-07T08:08:53.023Z,98495.50
2023-03-07T08:11:28.177Z,98527.31
2023-03-07T08:14:01.979Z,98525.34
2023-03-07T08:16:30.744Z,98528.13
2023-03-07T08:18:57.948Z,98533.81
2023-03-07T08:21:27.886Z,98542.75
2023-03-07T08:23:55.139Z,98544.41
2023-03-07T08:26:22.244Z,98545.03
2023-03-07T08:28:49.948Z,98537.31
2023-03-07T08:31:19.090Z,98543.34
2023-03-07T08:33:50.707Z,98546.47
2023-03-07T08:36:17.671Z,98546.34
2023-03-07T08:38:44.649Z,98550.47
2023-03-07T08:41:19.562Z,98550.28
2023-03-07T08:43:46.320Z,98558.28
2023-03-07T08:46:13.607Z,98562.56
2023-03-07T08:48:40.646Z,98568.03
2023-03-07T08:51:08.578Z,98567.22
2023-03-07T08:53:35.109Z,98571.34
2023-03-07T08:56:06.168Z,98569.50
2023-03-07T08:58:34.962Z,98582.34
2023-03-07T09:01:01.986Z,98571.34
2023-03-07T09:03:28.801Z,98578.47
2023-03-07T09:06:15.052Z,98578.69
2023-03-07T09:08:41.560Z,98573.72
2023-03-07T09:11:08.915Z,98582.59
2023-03-07T09:13:43.024Z,98582.22
2023-03-07T09:16:13.148Z,98577.25
2023-03-07T09:18:39.810Z,98588.81
2023-03-07T09:21:21.310Z,98579.28
2023-03-07T09:23:48.212Z,98593.97
2023-03-07T09:26:25.379Z,98596.63
2023-03-07T09:28:52.231Z,98616.81
2023-03-07T09:31:19.404Z,98615.44
2023-03-07T09:33:47.041Z,98632.53
2023-03-07T09:36:21.320Z,98633.34
2023-03-07T09:38:48.485Z,98637.81
2023-03-07T09:41:23.708Z,98636.81
2023-03-07T09:44:14.281Z,98627.59
2023-03-07T09:47:02.503Z,98633.69
2023-03-07T09:49:37.476Z,98644.94
2023-03-07T09:52:10.914Z,98645.56
2023-03-07T09:54:40.715Z,98652.13
2023-03-07T09:57:17.376Z,98659.28
2023-03-07T10:00:09.076Z,98667.16
2023-03-07T10:02:55.018Z,98657.56
2023-03-07T10:05:58.935Z,98650.03
2023-03-07T10:08:29.195Z,98649.63
2023-03-07T10:11:02.004Z,98641.03
2023-03-07T10:13:32.019Z,98647.56
2023-03-07T10:16:02.147Z,98651.31
2023-03-07T10:18:53.966Z,98645.50
2023-03-07T10:21:31.764Z,98642.72
2023-03-07T10:24:11.934Z,98637.25
2023-03-07T10:26:54.223Z,98639.84
2023-03-07T10:29:24.278Z,98637.59
2023-03-07T10:32:04.127Z,98653.97
2023-03-07T10:34:32.702Z,98669.88
2023-03-07T10:37:09.626Z,98657.63
2023-03-07T10:39:46.850Z,98680.16
2023-03-07T10:42:17.646Z,98686.31
2023-03-07T10:44:46.228Z,98683.91
2023-03-07T10:47:19.747Z,98672.81
2023-03-07T10:49:47.972Z,98667.84
2023-03-07T10:52:35.992Z,98664.13
2023-03-07T10:55:23.676Z,98667.88
2023-03-07T10:57:51.002Z,98664.31
2023-03-07T11:00:18.058Z,98666.78
2023-03-07T11:02:47.293Z,98668.09
2023-03-07T11:05:34.633Z,98675.16
2023-03-07T11:08:21.735Z,98670.81
2023-03-07T11:10:48.822Z,98671.72
2023-03-07T11:13:20.697Z,98667.53
2023-03-07T11:15:49.873Z,98648.69
2023-03-07T11:18:26.521Z,98654.66
2023-03-07T11:20:53.639Z,98676.28
2023-03-07T11:23:24.957Z,98659.78
2023-03-07T11:26:14.267Z,98659.06
2023-03-07T11:28:41.794Z,98663.16
2023-03-07T11:31:18.029Z,98673.78
2023-03-07T11:33:59.373Z,98677.97
2023-03-07T11:36:26.825Z,98683.09
2023-03-07T11:38:54.254Z,98688.41
2023-03-07T11:41:42.680Z,98689.44
2023-03-07T11:44:20.111Z,98701.41
2023-03-07T11:47:03.135Z,98695.38
2023-03-07T11:49:35.140Z,98694.25
2023-03-07T11:52:03.604Z,98698.25
2023-03-07T11:54:50.223Z,98713.44
2023-03-07T11:57:36.638Z,98721.06
2023-03-07T12:00:03.832Z,98712.63
2023-03-07T12:02:59.797Z,98712.38
2023-03-07T12:05:29.607Z,98719.53
2023-03-07T12:07:58.142Z,98721.47
2023-03-07T12:10:41.375Z,98717.53
2023-03-07T12:13:14.727Z,98725.91
2023-03-07T12:16:06.679Z,98718.63
2023-03-07T12:18:44.560Z,98723.09
2023-03-07T12:21:11.934Z,98738.69
2023-03-07T12:23:39.637Z,98741.88
2023-03-07T12:26:17.706Z,98749.84
2023-03-07T12:28:49.374Z,98744.06
2023-03-07T12:31:28.701Z,98740.47
2023-03-07T12:33:55.639Z,98759.97
2023-03-07T12:36:22.902Z,98768.03
2023-03-07T12:39:00.523Z,98757.97
2023-03-07T12:41:41.111Z,98759.97
2023-03-07T12:44:13.504Z,98759.78
2023-03-07T12:47:04.843Z,98769.94
2023-03-07T12:49:50.509Z,98762.88
2023-03-07T12:52:38.885Z,98771.00
2023-03-07T12:55:18.648Z,98775.53
2023-03-07T12:57:51.113Z,98757.84
2023-03-07T13:00:22.214Z,98786.44
2023-03-07T13:03:02.694Z,98777.13
2023-03-07T13:05:30.111Z,98791.66
2023-03-07T13:08:16.122Z,98781.47
2023-03-07T13:10:45.154Z,98794.06
2023-03-07T13:13:51.092Z,98786.03
2023-03-07T13:16:40.315Z,98798.88
2023-03-07T13:19:26.774Z,98794.44
2023-03-07T13:21:54.121Z,98797.94
2023-03-07T13:24:38.596Z,98798.22
2023-03-07T13:27:18.898Z,98795.13
2023-03-07T13:30:04.524Z,98797.31
2023-03-07T13:32:57.290Z,98790.81
2023-03-07T13:35:33.195Z,98792.69
2023-03-07T13:38:18.593Z,98798.59
2023-03-07T13:40:45.439Z,98802.31
2023-03-07T13:43:33.487Z,98798.22
2023-03-07T13:46:00.672Z,98807.16
2023-03-07T13:48:28.770Z,98801.16
2023-03-07T13:50:55.281Z,98809.44
2023-03-07T13:53:25.189Z,98809.63
2023-03-07T13:56:12.589Z,98813.31
2023-03-07T13:58:44.639Z,98802.38
2023-03-07T14:01:47.211Z,98811.31
2023-03-07T14:04:13.706Z,98821.41
2023-03-07T14:06:42.679Z,98815.16
2023-03-07T14:09:14.623Z,98832.13
2023-03-07T14:11:45.476Z,98823.72
2023-03-07T14:14:21.369Z,98819.84
2023-03-07T14:17:07.467Z,98815.19
2023-03-07T14:19:35.610Z,98814.97
2023-03-07T14:22:06.417Z,98826.19
2023-03-07T14:24:51.364Z,98829.91
2023-03-07T14:27:18.282Z,98832.66
2023-03-07T14:29:49.621Z,98831.75
2023-03-07T14:32:32.381Z,98827.38
2023-03-07T14:35:00.938Z,98831.91
2023-03-07T14:37:32.884Z,98833.28
2023-03-07T14:40:01.025Z,98821.06
2023-03-07T14:42:33.987Z,98828.84
2023-03-07T14:45:04.210Z,98844.31
2023-03-07T14:47:55.536Z,98834.94
2023-03-07T14:50:26.221Z,98838.69
2023-03-07T14:52:56.133Z,98851.72
2023-03-07T14:55:24.423Z,98842.91
2023-03-07T14:57:53.154Z,98841.28
2023-03-07T15:00:29.556Z,98847.03
2023-03-07T15:03:04.387Z,98853.88
2023-03-07T15:05:32.686Z,98848.94
2023-03-07T15:07:59.790Z,98846.91
2023-03-07T15:10:35.019Z,98857.97
2023-03-07T15:13:04.035Z,98860.38
2023-03-07T15:15:35.830Z,98863.50
2023-03-07T15:18:25.657Z,98866.47
2023-03-07T15:20:53.954Z,98873.25
2023-03-07T15:23:22.886Z,98882.81
2023-03-07T15:25:56.451Z,98885.34
2023-03-07T15:28:28.255Z,98888.25
2023-03-07T15:30:55.927Z,98891.75
2023-03-07T15:33:24.366Z,98895.34
2023-03-07T15:36:10.331Z,98895.16
2023-03-07T15:38:37.834Z,98892.78
2023-03-07T15:41:23.697Z,98895.63
2023-03-07T15:44:03.489Z,98896.53
2023-03-07T15:46:31.325Z,98903.22
2023-03-07T15:48:58.226Z,98901.25
2023-03-07T15:51:27.348Z,98905.31
2023-03-07T15:53:58.250Z,98907.09
2023-03-07T15:56:30.435Z,98909.19
2023-03-07T15:58:59.869Z,98898.41
2023-03-07T16:01:28.830Z,98909.78
2023-03-07T16:03:57.678Z,98899.09
2023-03-07T16:06:40.337Z,98911.25
2023-03-07T16:09:10.160Z,98913.84
2023-03-07T16:11:38.154Z,98915.25
2023-03-07T16:14:04.897Z,98917.47
2023-03-07T16:16:31.819Z,98919.56
2023-03-07T16:18:59.043Z,98908.69
2023-03-07T16:21:27.002Z,98912.69
2023-03-07T16:23:56.728Z,98917.25
2023-03-07T16:26:25.304Z,98916.03
2023-03-07T16:28:52.450Z,98916.56
2023-03-07T16:31:20.509Z,98924.59
2023-03-07T16:33:48.156Z,98922.31
2023-03-07T16:36:15.894Z,98922.19
2023-03-07T16:38:42.839Z,98932.03
2023-03-07T16:41:21.034Z,98939.38
2023-03-07T16:43:52.737Z,98934.75
2023-03-07T16:46:20.766Z,98941.63
2023-03-07T16:48:47.623Z,98937.56
2023-03-07T16:51:19.502Z,98936.22
2023-03-07T16:53:47.163Z,98944.94
2023-03-07T16:56:32.916Z,98945.13
2023-03-07T16:59:02.039Z,98960.81
2023-03-07T17:01:28.657Z,98958.81
2023-03-07T17:03:59.175Z,98963.97
2023-03-07T17:06:38.401Z,98969.28
2023-03-07T17:09:06.397Z,98984.00
2023-03-07T17:11:33.556Z,98990.06
2023-03-07T17:14:02.898Z,98984.31
2023-03-07T17:16:29.999Z,98987.50
2023-03-07T17:18:57.963Z,98995.81
2023-03-07T17:21:24.782Z,98993.66
2023-03-07T17:23:51.487Z,98999.00
2023-03-07T17:26:29.079Z,98994.81
2023-03-07T17:28:57.018Z,98990.16
2023-03-07T17:31:23.556Z,98997.34
2023-03-07T17:33:50.376Z,98996.78
2023-03-07T17:36:16.748Z,99000.75
2023-03-07T17:38:43.342Z,99005.78
2023-03-07T17:41:10.120Z,99014.03
2023-03-07T17:43:36.505Z,99016.38
2023-03-07T17:46:08.736Z,99021.03
2023-03-07T17:48:36.013Z,99024.34
2023-03-07T17:51:07.141Z,99022.13
2023-03-07T17:53:35.137Z,99030.13
2023-03-07T17:56:08.793Z,99028.06
2023-03-07T17:58:35.190Z,99034.84
2023-03-07T18:01:01.969Z,99032.41
2023-03-07T18:03:29.361Z,99043.06
2023-03-07T18:05:55.892Z,99041.88
2023-03-07T18:08:22.997Z,99046.88
2023-03-07T18:10:49.470Z,99044.81
2023-03-07T18:13:15.852Z,99052.75
2023-03-07T18:15:45.948Z,99053.44
2023-03-07T18:18:12.893Z,99053.63
2023-03-07T18:20:41.862Z,99059.72
2023-03-07T18:23:09.013Z,99058.97
2023-03-07T18:25:36.037Z,99068.44
2023-03-07T18:28:03.368Z,99055.44
2023-03-07T18:30:30.615Z,99061.41
2023-03-07T18:32:58.235Z,99067.28
2023-03-07T18:35:25.311Z,99058.34
2023-03-07T18:37:52.240Z,99060.06
2023-03-07T18:40:22.188Z,99067.34
2023-03-07T18:42:48.813Z,99071.97
2023-03-07T18:45:15.741Z,99067.28
2023-03-07T18:47:42.682Z,99064.81
2023-03-07T18:50:10.360Z,99076.09
2023-03-07T18:52:37.101Z,99080.13
2023-03-07T18:55:04.424Z,99082.50
2023-03-07T18:57:32.282Z,99084.53
2023-03-07T18:59:58.981Z,99094.38
2023-03-07T19:02:25.590Z,99093.03
2023-03-07T19:04:53.658Z,99106.19
2023-03-07T19:07:20.313Z,99099.13
2023-03-07T19:09:53.386Z,99105.78
2023-03-07T19:12:20.398Z,99104.50
2023-03-07T19:14:47.059Z,99095.22
2023-03-07T19:17:13.594Z,99109.66
2023-03-07T19:19:40.141Z,99105.50
2023-03-07T19:22:07.784Z,99102.69
2023-03-07T19:24:34.649Z,99107.31
2023-03-07T19:27:01.260Z,99107.97
2023-03-07T19:29:28.135Z,99112.53
2023-03-07T19:31:54.882Z,99112.19
2023-03-07T19:34:21.539Z,99118.56
2023-03-07T19:36:47.910Z,99119.56
2023-03-07T19:39:20.599Z,99122.38
2023-03-07T19:41:50.704Z,99120.63
2023-03-07T19:44:17.621Z,99123.00
2023-03-07T19:46:46.401Z,99118.53
2023-03-07T19:49:16.982Z,99128.00
2023-03-07T19:51:43.845Z,99135.22
2023-03-07T19:54:13.495Z,99133.06
2023-03-07T19:56:42.686Z,99135.91
2023-03-07T19:59:10.479Z,99139.34
2023-03-07T20:01:38.201Z,99141.91
2023-03-07T20:04:06.460Z,99142.91
2023-03-07T20:06:33.659Z,99145.72
2023-03-07T20:09:00.537Z,99147.66
2023-03-07T20:11:31.805Z,99147.56
2023-03-07T20:13:59.649Z,99151.09
2023-03-07T20:16:29.119Z,99151.94
2023-03-07T20:18:58.317Z,99157.66
2023-03-07T20:21:28.139Z,99153.22
2023-03-07T20:23:59.085Z,99163.81
2023-03-07T20:26:27.636Z,99166.47
2023-03-07T20:28:56.256Z,99173.75
2023-03-07T20:31:23.822Z,99165.09
2023-03-07T20:33:52.321Z,99176.13
2023-03-07T20:36:22.565Z,99173.66
2023-03-07T20:38:55.050Z,99170.72
2023-03-07T20:41:23.666Z,99173.09
2023-03-07T20:43:51.062Z,99171.81
2023-03-07T20:46:18.806Z,99182.16
2023-03-07T20:48:46.344Z,99192.00
2023-03-07T20:51:21.037Z,99197.38
2023-03-07T20:53:51.678Z,99194.28
2023-03-07T20:56:19.370Z,99196.13
2023-03-07T20:58:46.203Z,99195.72
2023-03-07T21:01:15.135Z,99194.78
2023-03-07T21:03:41.775Z,99191.97
2023-03-07T21:06:08.634Z,99193.34
2023-03-07T21:08:36.103Z,99196.47
2023-03-07T21:11:02.806Z,99199.47
2023-03-07T21:13:30.161Z,99196.66
2023-03-07T21:15:58.035Z,99203.00
2023-03-07T21:18:26.149Z,99204.75
2023-03-07T21:20:52.963Z,99213.72
2023-03-07T21:23:19.603Z,99212.00
2023-03-07T21:25:46.742Z,99206.34
2023-03-07T21:28:16.809Z,99211.84
2023-03-07T21:30:43.609Z,99211.06
2023-03-07T21:33:10.835Z,99222.38
2023-03-07T21:35:41.275Z,99216.88
2023-03-07T21:38:08.635Z,99225.91
2023-03-07T21:40:35.391Z,99225.19
2023-03-07T21:43:03.108Z,99225.53
2023-03-07T21:45:31.714Z,99222.38
2023-03-07T21:47:58.799Z,99221.44
2023-03-07T21:50:25.831Z,99221.09
2023-03-07T21:52:52.997Z,99234.34
2023-03-07T21:55:19.813Z,99237.97
2023-03-07T21:57:46.626Z,99239.97
2023-03-07T22:00:17.204Z,99234.81
2023-03-07T22:02:44.528Z,99241.00
2023-03-07T22:05:13.324Z,99243.97
2023-03-07T22:07:40.669Z,99250.66
2023-03-07T22:10:07.590Z,99247.78
2023-03-07T22:12:34.570Z,99254.47
2023-03-07T22:15:01.771Z,99247.59
2023-03-07T22:17:28.281Z,99248.09
2023-03-07T22:19:55.864Z,99250.56
2023-03-07T22:22:23.052Z,99252.78
2023-03-07T22:24:49.897Z,99256.47
2023-03-07T22:27:16.532Z,99255.50
2023-03-07T22:29:44.462Z,99255.31
2023-03-07T22:32:11.654Z,99256.50
2023-03-07T22:34:38.298Z,99261.22
2023-03-07T22:37:05.316Z,99260.91
2023-03-07T22:39:31.968Z,99257.31
2023-03-07T22:41:58.788Z,99257.84
2023-03-07T22:44:25.174Z,99262.72
2023-03-07T22:46:51.682Z,99266.84
2023-03-07T22:49:18.623Z,99276.06
2023-03-07T22:51:46.206Z,99269.00
2023-03-07T22:54:13.143Z,99272.13
2023-03-07T22:56:40.598Z,99276.53
2023-03-07T22:59:07.785Z,99279.28
2023-03-07T23:01:34.642Z,99288.22
2023-03-07T23:04:01.200Z,99283.47
2023-03-07T23:06:30.185Z,99282.00
2023-03-07T23:08:59.526Z,99287.19
2023-03-07T23:11:26.657Z,99284.56
2023-03-07T23:13:54.186Z,99290.41
2023-03-07T23:16:22.185Z,99285.47
2023-03-07T23:18:50.966Z,99291.34
2023-03-07T23:21:19.271Z,99294.75
2023-03-07T23:23:45.870Z,99287.50
2023-03-07T23:26:19.729Z,99290.13
2023-03-07T23:28:46.291Z,99304.53
2023-03-07T23:31:20.290Z,99295.41
2023-03-07T23:33:47.217Z,99289.16
2023-03-07T23:36:14.051Z,99305.66
2023-03-07T23:38:40.703Z,99293.63
2023-03-07T23:41:07.933Z,99308.84
2023-03-07T23:43:34.766Z,99304.22
2023-03-07T23:46:01.235Z,99306.53
2023-03-07T23:48:27.733Z,99308.13
2023-03-07T23:50:54.204Z,99306.91
2023-03-07T23:53:20.706Z,99312.19
2023-03-07T23:55:47.239Z,99317.72
2023-03-07T23:58:13.793Z,99317.31
